createdAt,value
2018-09-06T00:00:15.257Z,1005.0
2018-09-06T00:01:17.360Z,1005.0
2018-09-06T00:02:19.121Z,1005.0
2018-09-06T00:03:21.317Z,1005.0
2018-09-06T00:04:23.339Z,1005.0
2018-09-06T00:05:25.460Z,1005.0
2018-09-06T00:06:27.397Z,1005.0
2018-09-06T00:07:29.526Z,1005.0
2018-09-06T00:08:31.646Z,1004.9
2018-09-06T00:09:33.585Z,1004.9
2018-09-06T00:10:35.663Z,1004.9
2018-09-06T00:11:37.796Z,1004.9
2018-09-06T00:12:39.846Z,1004.9
2018-09-06T00:13:42.013Z,1004.9
2018-09-06T00:14:43.817Z,1004.9
2018-09-06T00:15:46.024Z,1004.8
2018-09-06T00:16:48.140Z,1004.8
2018-09-06T00:17:50.220Z,1004.8
2018-09-06T00:18:52.311Z,1004.8
2018-09-06T00:19:54.113Z,1004.8
2018-09-06T00:20:55.898Z,1004.8
2018-09-06T00:21:58.012Z,1004.8
2018-09-06T00:22:59.970Z,1004.8
2018-09-06T00:24:01.973Z,1004.8
2018-09-06T00:25:04.168Z,1004.8
2018-09-06T00:26:06.166Z,1004.9
2018-09-06T00:27:08.261Z,1004.8
2018-09-06T00:28:10.262Z,1004.8
2018-09-06T00:29:12.032Z,1004.8
2018-09-06T00:30:13.753Z,1004.8
2018-09-06T00:31:15.778Z,1004.8
2018-09-06T00:32:17.621Z,1004.8
2018-09-06T00:33:19.732Z,1004.8
2018-09-06T00:34:21.546Z,1004.8
2018-09-06T00:35:23.565Z,1004.8
2018-09-06T00:36:25.344Z,1004.8
2018-09-06T00:37:27.472Z,1004.8
2018-09-06T00:38:29.580Z,1004.8
2018-09-06T00:39:31.303Z,1004.8
2018-09-06T00:40:33.554Z,1004.8
2018-09-06T00:41:35.654Z,1004.8
2018-09-06T00:42:37.417Z,1004.8
2018-09-06T00:43:39.569Z,1004.8
2018-09-06T00:44:41.687Z,1004.8
2018-09-06T00:45:43.414Z,1004.8
2018-09-06T00:46:45.487Z,1004.8
2018-09-06T00:47:47.497Z,1004.8
2018-09-06T00:48:49.463Z,1004.8
2018-09-06T00:49:51.488Z,1004.8
2018-09-06T00:50:53.659Z,1004.8
2018-09-06T00:51:55.695Z,1004.8
2018-09-06T00:52:57.850Z,1004.8
2018-09-06T00:53:59.846Z,1004.8
2018-09-06T00:55:01.995Z,1004.8
2018-09-06T00:56:04.148Z,1004.9
2018-09-06T00:57:06.240Z,1004.9
2018-09-06T00:58:08.343Z,1004.8
2018-09-06T00:59:10.368Z,1004.8
2018-09-06T01:00:12.471Z,1004.8
2018-09-06T01:01:14.596Z,1004.8
2018-09-06T01:02:16.665Z,1004.7
2018-09-06T01:03:18.503Z,1004.7
2018-09-06T01:04:20.630Z,1004.6
2018-09-06T01:05:22.700Z,1004.6
2018-09-06T01:06:24.969Z,1004.6
2018-09-06T01:07:26.919Z,1004.6
2018-09-06T01:08:28.880Z,1004.6
2018-09-06T01:09:30.913Z,1004.6
2018-09-06T01:10:32.986Z,1004.6
2018-09-06T01:11:34.965Z,1004.6
2018-09-06T01:12:37.089Z,1004.7
2018-09-06T01:13:39.009Z,1004.8
2018-09-06T01:14:40.773Z,1004.8
2018-09-06T01:15:42.992Z,1004.7
2018-09-06T01:16:44.900Z,1004.7
2018-09-06T01:17:46.905Z,1004.7
2018-09-06T01:18:48.730Z,1004.7
2018-09-06T01:19:50.755Z,1004.7
2018-09-06T01:20:52.831Z,1004.6
2018-09-06T01:21:54.968Z,1004.6
2018-09-06T01:22:57.019Z,1004.6
2018-09-06T01:23:59.152Z,1004.6
2018-09-06T01:25:01.645Z,1004.6
2018-09-06T01:26:03.792Z,1004.6
2018-09-06T01:27:05.868Z,1004.6
2018-09-06T01:28:07.796Z,1004.6
2018-09-06T01:29:09.967Z,1004.5
2018-09-06T01:30:12.044Z,1004.5
2018-09-06T01:31:14.026Z,1004.5
2018-09-06T01:32:16.173Z,1004.5
2018-09-06T01:33:18.282Z,1004.5
2018-09-06T01:34:20.354Z,1004.5
2018-09-06T01:35:22.475Z,1004.5
2018-09-06T01:36:24.506Z,1004.5
2018-09-06T01:37:26.279Z,1004.5
2018-09-06T01:38:28.556Z,1004.6
2018-09-06T01:39:30.558Z,1004.5
2018-09-06T01:40:32.450Z,1004.6
2018-09-06T01:41:34.548Z,1004.6
2018-09-06T01:42:36.620Z,1004.5
2018-09-06T01:43:38.830Z,1004.5
2018-09-06T01:44:40.927Z,1004.5
2018-09-06T01:45:42.954Z,1004.5
2018-09-06T01:46:45.125Z,1004.5
2018-09-06T01:47:46.932Z,1004.5
2018-09-06T01:48:49.009Z,1004.4
2018-09-06T01:49:51.233Z,1004.4
2018-09-06T01:50:53.040Z,1004.4
2018-09-06T01:51:54.969Z,1004.4
2018-09-06T01:52:57.114Z,1004.4
2018-09-06T01:53:58.895Z,1004.4
2018-09-06T01:55:01.101Z,1004.4
2018-09-06T01:56:03.317Z,1004.4
2018-09-06T01:57:05.403Z,1004.4
2018-09-06T01:58:07.558Z,1004.4
2018-09-06T01:59:09.817Z,1004.4
2018-09-06T02:00:11.932Z,1004.4
2018-09-06T02:01:14.043Z,1004.3
2018-09-06T02:02:16.160Z,1004.3
2018-09-06T02:03:18.295Z,1004.3
2018-09-06T02:04:20.427Z,1004.3
2018-09-06T02:05:22.458Z,1004.3
2018-09-06T02:06:24.442Z,1004.4
2018-09-06T02:07:26.475Z,1004.3
2018-09-06T02:08:28.282Z,1004.3
2018-09-06T02:09:30.506Z,1004.3
2018-09-06T02:10:32.645Z,1004.3
2018-09-06T02:11:34.837Z,1004.3
2018-09-06T02:12:36.539Z,1004.3
2018-09-06T02:13:38.668Z,1004.3
2018-09-06T02:14:40.424Z,1004.3
2018-09-06T02:15:42.655Z,1004.3
2018-09-06T02:16:44.736Z,1004.3
2018-09-06T02:17:46.519Z,1004.2
2018-09-06T02:18:48.528Z,1004.2
2018-09-06T02:19:50.520Z,1004.3
2018-09-06T02:20:52.741Z,1004.3
2018-09-06T02:21:54.660Z,1004.3
2018-09-06T02:22:56.754Z,1004.3
2018-09-06T02:23:58.835Z,1004.3
2018-09-06T02:25:00.839Z,1004.2
2018-09-06T02:26:02.956Z,1004.2
2018-09-06T02:27:04.996Z,1004.2
2018-09-06T02:28:07.050Z,1004.2
2018-09-06T02:29:08.965Z,1004.3
2018-09-06T02:30:11.017Z,1004.3
2018-09-06T02:31:13.093Z,1004.3
2018-09-06T02:32:15.253Z,1004.2
2018-09-06T02:33:17.275Z,1004.2
2018-09-06T02:34:19.298Z,1004.2
2018-09-06T02:35:21.522Z,1004.2
2018-09-06T02:36:23.679Z,1004.2
2018-09-06T02:37:25.580Z,1004.2
2018-09-06T02:38:27.607Z,1004.2
2018-09-06T02:39:29.730Z,1004.2
2018-09-06T02:40:31.816Z,1004.2
2018-09-06T02:41:33.889Z,1004.2
2018-09-06T02:42:35.617Z,1004.3
2018-09-06T02:43:37.741Z,1004.3
2018-09-06T02:44:39.603Z,1004.2
2018-09-06T02:45:41.691Z,1004.2
2018-09-06T02:46:43.488Z,1004.2
2018-09-06T02:47:45.602Z,1004.2
2018-09-06T02:48:47.652Z,1004.2
2018-09-06T02:49:49.442Z,1004.2
2018-09-06T02:50:51.493Z,1004.3
2018-09-06T02:51:53.524Z,1004.3
2018-09-06T02:52:55.563Z,1004.2
2018-09-06T02:53:57.623Z,1004.2
2018-09-06T02:54:59.615Z,1004.2
2018-09-06T02:56:01.558Z,1004.2
2018-09-06T02:57:03.508Z,1004.2
2018-09-06T02:58:05.443Z,1004.1
2018-09-06T02:59:07.511Z,1004.1
2018-09-06T03:00:09.506Z,1004.1
2018-09-06T03:01:11.625Z,1004.1
2018-09-06T03:02:13.687Z,1004.1
2018-09-06T03:03:15.642Z,1004.0
2018-09-06T03:04:17.656Z,1004.0
2018-09-06T03:05:19.621Z,1004.0
2018-09-06T03:06:21.423Z,1004.0
2018-09-06T03:07:23.267Z,1004.0
2018-09-06T03:08:25.337Z,1004.0
2018-09-06T03:09:27.465Z,1004.0
2018-09-06T03:10:29.537Z,1004.0
2018-09-06T03:11:31.285Z,1004.0
2018-09-06T03:12:33.339Z,1004.0
2018-09-06T03:13:35.375Z,1004.0
2018-09-06T03:14:37.490Z,1003.9
2018-09-06T03:15:39.450Z,1004.0
2018-09-06T03:16:41.558Z,1003.9
2018-09-06T03:17:43.358Z,1004.0
2018-09-06T03:18:45.477Z,1003.9
2018-09-06T03:19:47.650Z,1003.9
2018-09-06T03:20:49.702Z,1003.9
2018-09-06T03:21:51.829Z,1003.9
2018-09-06T03:22:53.887Z,1003.9
2018-09-06T03:23:55.846Z,1003.9
2018-09-06T03:24:57.698Z,1003.9
2018-09-06T03:25:59.843Z,1003.9
2018-09-06T03:27:01.933Z,1003.9
2018-09-06T03:28:04.027Z,1003.9
2018-09-06T03:29:06.167Z,1003.9
2018-09-06T03:30:08.003Z,1003.9
2018-09-06T03:31:09.893Z,1004.0
2018-09-06T03:32:11.876Z,1004.0
2018-09-06T03:33:13.987Z,1004.0
2018-09-06T03:34:15.722Z,1004.1
2018-09-06T03:35:17.741Z,1004.1
2018-09-06T03:36:19.739Z,1004.1
2018-09-06T03:37:21.837Z,1004.1
2018-09-06T03:38:23.804Z,1004.1
2018-09-06T03:39:25.779Z,1004.2
2018-09-06T03:40:27.612Z,1004.1
2018-09-06T03:41:29.654Z,1004.1
2018-09-06T03:42:31.722Z,1004.2
2018-09-06T03:43:33.799Z,1004.2
2018-09-06T03:44:35.840Z,1004.2
2018-09-06T03:45:37.859Z,1004.2
2018-09-06T03:46:39.912Z,1004.2
2018-09-06T03:47:41.994Z,1004.2
2018-09-06T03:48:43.999Z,1004.2
2018-09-06T03:49:45.784Z,1004.3
2018-09-06T03:50:48.007Z,1004.2
2018-09-06T03:51:49.985Z,1004.2
2018-09-06T03:52:52.059Z,1004.2
2018-09-06T03:53:54.160Z,1004.2
2018-09-06T03:54:56.174Z,1004.2
2018-09-06T03:55:58.003Z,1004.2
2018-09-06T03:57:00.067Z,1004.2
2018-09-06T03:58:02.110Z,1004.2
2018-09-06T03:59:04.226Z,1004.2
2018-09-06T04:00:06.343Z,1004.2
2018-09-06T04:01:08.437Z,1004.2
2018-09-06T04:02:10.439Z,1004.3
2018-09-06T04:03:12.287Z,1004.2
2018-09-06T04:04:14.257Z,1004.2
2018-09-06T04:05:16.107Z,1004.2
2018-09-06T04:06:18.038Z,1004.2
2018-09-06T04:07:19.893Z,1004.2
2018-09-06T04:08:22.063Z,1004.2
2018-09-06T04:09:24.207Z,1004.2
2018-09-06T04:10:26.066Z,1004.2
2018-09-06T04:11:27.795Z,1004.1
2018-09-06T04:12:29.559Z,1004.2
2018-09-06T04:13:31.539Z,1004.2
2018-09-06T04:14:33.628Z,1004.2
2018-09-06T04:15:35.408Z,1004.2
2018-09-06T04:16:37.587Z,1004.2
2018-09-06T04:17:39.495Z,1004.2
2018-09-06T04:18:41.391Z,1004.2
2018-09-06T04:19:43.545Z,1004.2
2018-09-06T04:20:45.337Z,1004.2
2018-09-06T04:21:47.191Z,1004.2
2018-09-06T04:22:49.235Z,1004.2
2018-09-06T04:23:51.272Z,1004.2
2018-09-06T04:24:53.413Z,1004.2
2018-09-06T04:25:55.535Z,1004.2
2018-09-06T04:26:57.305Z,1004.2
2018-09-06T04:27:59.434Z,1004.2
2018-09-06T04:29:01.638Z,1004.2
2018-09-06T04:30:03.710Z,1004.2
2018-09-06T04:31:05.752Z,1004.2
2018-09-06T04:32:07.711Z,1004.2
2018-09-06T04:33:09.799Z,1004.2
2018-09-06T04:34:11.794Z,1004.2
2018-09-06T04:35:13.898Z,1004.2
2018-09-06T04:36:16.002Z,1004.2
2018-09-06T04:37:17.874Z,1004.2
2018-09-06T04:38:19.834Z,1004.2
2018-09-06T04:39:21.853Z,1004.2
2018-09-06T04:40:24.012Z,1004.2
2018-09-06T04:41:25.946Z,1004.2
2018-09-06T04:42:28.125Z,1004.2
2018-09-06T04:43:30.251Z,1004.2
2018-09-06T04:44:32.213Z,1004.2
2018-09-06T04:45:34.198Z,1004.2
2018-09-06T04:46:36.324Z,1004.2
2018-09-06T04:47:38.506Z,1004.2
2018-09-06T04:48:40.667Z,1004.3
2018-09-06T04:49:42.471Z,1004.3
2018-09-06T04:50:44.527Z,1004.3
2018-09-06T04:51:46.473Z,1004.3
2018-09-06T04:52:48.548Z,1004.3
2018-09-06T04:53:50.513Z,1004.3
2018-09-06T04:54:52.702Z,1004.3
2018-09-06T04:55:54.627Z,1004.3
2018-09-06T04:56:56.441Z,1004.3
2018-09-06T04:57:58.335Z,1004.3
2018-09-06T04:59:00.144Z,1004.3
2018-09-06T05:00:02.130Z,1004.3
2018-09-06T05:01:04.270Z,1004.3
2018-09-06T05:02:06.117Z,1004.3
2018-09-06T05:03:07.963Z,1004.2
2018-09-06T05:04:09.897Z,1004.2
2018-09-06T05:05:11.951Z,1004.2
2018-09-06T05:06:14.034Z,1004.2
2018-09-06T05:07:16.053Z,1004.2
2018-09-06T05:08:17.953Z,1004.2
2018-09-06T05:09:19.759Z,1004.3
2018-09-06T05:10:21.650Z,1004.3
2018-09-06T05:11:23.433Z,1004.3
2018-09-06T05:12:25.401Z,1004.4
2018-09-06T05:13:27.422Z,1004.4
2018-09-06T05:14:29.432Z,1004.4
2018-09-06T05:15:31.348Z,1004.4
2018-09-06T05:16:33.319Z,1004.5
2018-09-06T05:17:35.411Z,1004.5
2018-09-06T05:18:37.314Z,1004.5
2018-09-06T05:19:39.377Z,1004.5
2018-09-06T05:20:41.403Z,1004.6
2018-09-06T05:21:43.308Z,1004.6
2018-09-06T05:22:45.439Z,1004.6
2018-09-06T05:23:47.209Z,1004.6
2018-09-06T05:24:49.113Z,1004.6
2018-09-06T05:25:51.300Z,1004.6
2018-09-06T05:26:53.185Z,1004.6
2018-09-06T05:27:56.091Z,1004.6
2018-09-06T05:28:57.864Z,1004.6
2018-09-06T05:29:59.587Z,1004.6
2018-09-06T05:31:01.642Z,1004.6
2018-09-06T05:32:03.372Z,1004.6
2018-09-06T05:33:05.167Z,1004.6
2018-09-06T05:34:06.915Z,1004.6
2018-09-06T05:35:08.781Z,1004.7
2018-09-06T05:36:10.802Z,1004.7
2018-09-06T05:37:14.101Z,1004.7
2018-09-06T05:38:18.707Z,1004.7
2018-09-06T05:39:20.463Z,1004.7
2018-09-06T05:40:24.899Z,1004.6
2018-09-06T05:41:27.399Z,1004.6
2018-09-06T05:42:29.173Z,1004.7
2018-09-06T05:43:31.300Z,1004.7
2018-09-06T05:44:33.045Z,1004.6
2018-09-06T05:45:37.492Z,1004.7
2018-09-06T05:46:41.104Z,1004.6
2018-09-06T05:47:44.969Z,1004.6
2018-09-06T05:48:46.550Z,1004.6
2018-09-06T05:49:49.780Z,1004.6
2018-09-06T05:50:51.622Z,1004.6
2018-09-06T05:51:53.367Z,1004.6
2018-09-06T05:52:55.085Z,1004.6
2018-09-06T05:53:56.946Z,1004.5
2018-09-06T05:54:58.967Z,1004.5
2018-09-06T05:56:00.985Z,1004.6
2018-09-06T05:57:03.829Z,1004.6
2018-09-06T05:58:05.682Z,1004.6
2018-09-06T05:59:08.791Z,1004.6
2018-09-06T06:00:12.104Z,1004.6
2018-09-06T06:01:13.957Z,1004.7
2018-09-06T06:02:15.892Z,1004.6
2018-09-06T06:03:17.787Z,1004.7
2018-09-06T06:04:19.551Z,1004.7
2018-09-06T06:05:21.329Z,1004.7
2018-09-06T06:06:23.262Z,1004.7
2018-09-06T06:07:24.996Z,1004.7
2018-09-06T06:08:26.980Z,1004.7
2018-09-06T06:09:28.730Z,1004.7
2018-09-06T06:10:31.064Z,1004.7
2018-09-06T06:11:32.836Z,1004.7
2018-09-06T06:12:34.749Z,1004.7
2018-09-06T06:13:37.094Z,1004.7
2018-09-06T06:14:38.822Z,1004.8
2018-09-06T06:15:40.636Z,1004.7
2018-09-06T06:16:42.530Z,1004.8
2018-09-06T06:17:44.497Z,1004.7
2018-09-06T06:18:46.196Z,1004.8
2018-09-06T06:19:48.477Z,1004.8
2018-09-06T06:20:50.345Z,1004.7
2018-09-06T06:21:52.096Z,1004.7
2018-09-06T06:22:53.872Z,1004.6
2018-09-06T06:23:55.826Z,1004.6
2018-09-06T06:24:57.556Z,1004.6
2018-09-06T06:25:59.412Z,1004.6
2018-09-06T06:27:01.173Z,1004.6
2018-09-06T06:28:03.190Z,1004.6
2018-09-06T06:29:05.137Z,1004.6
2018-09-06T06:30:07.001Z,1004.6
2018-09-06T06:31:09.001Z,1004.7
2018-09-06T06:32:11.384Z,1004.7
2018-09-06T06:33:13.152Z,1004.6
2018-09-06T06:34:17.174Z,1004.6
2018-09-06T06:35:18.969Z,1004.6
2018-09-06T06:36:20.685Z,1004.5
2018-09-06T06:37:22.476Z,1004.6
2018-09-06T06:38:27.738Z,1004.5
2018-09-06T06:39:29.364Z,1004.5
2018-09-06T06:40:31.137Z,1004.5
2018-09-06T06:41:32.907Z,1004.5
2018-09-06T06:42:36.631Z,1004.5
2018-09-06T06:43:38.663Z,1004.4
2018-09-06T06:44:40.443Z,1004.4
2018-09-06T06:45:42.198Z,1004.4
2018-09-06T06:46:44.101Z,1004.3
2018-09-06T06:47:48.652Z,1004.4
2018-09-06T06:48:50.401Z,1004.4
2018-09-06T06:49:52.278Z,1004.4
2018-09-06T06:50:55.688Z,1004.4
2018-09-06T06:51:57.565Z,1004.4
2018-09-06T06:53:00.876Z,1004.4
2018-09-06T06:54:03.835Z,1004.4
2018-09-06T06:55:05.445Z,1004.4
2018-09-06T06:56:08.852Z,1004.4
2018-09-06T06:57:10.678Z,1004.3
2018-09-06T06:58:13.981Z,1004.3
2018-09-06T06:59:17.100Z,1004.3
2018-09-06T07:00:18.886Z,1004.4
2018-09-06T07:01:21.258Z,1004.4
2018-09-06T07:02:23.089Z,1004.4
2018-09-06T07:03:24.968Z,1004.3
2018-09-06T07:04:27.875Z,1004.3
2018-09-06T07:05:30.384Z,1004.3
2018-09-06T07:06:32.509Z,1004.3
2018-09-06T07:07:35.330Z,1004.3
2018-09-06T07:08:37.249Z,1004.4
2018-09-06T07:09:39.616Z,1004.4
2018-09-06T07:10:41.319Z,1004.4
2018-09-06T07:11:43.187Z,1004.4
2018-09-06T07:12:45.053Z,1004.4
2018-09-06T07:13:47.392Z,1004.3
2018-09-06T07:14:49.144Z,1004.3
2018-09-06T07:15:52.239Z,1004.4
2018-09-06T07:16:55.194Z,1004.4
2018-09-06T07:17:58.146Z,1004.3
2018-09-06T07:19:01.099Z,1004.3
2018-09-06T07:20:04.181Z,1004.3
2018-09-06T07:21:07.268Z,1004.4
2018-09-06T07:22:11.765Z,1004.4
2018-09-06T07:23:14.404Z,1004.4
2018-09-06T07:24:16.188Z,1004.5
2018-09-06T07:25:19.566Z,1004.5
2018-09-06T07:26:22.642Z,1004.5
2018-09-06T07:27:25.345Z,1004.5
2018-09-06T07:28:27.128Z,1004.5
2018-09-06T07:29:29.642Z,1004.6
2018-09-06T07:30:32.133Z,1004.6
2018-09-06T07:31:34.503Z,1004.7
2018-09-06T07:32:36.271Z,1004.7
2018-09-06T07:33:38.583Z,1004.7
2018-09-06T07:34:41.429Z,1004.8
2018-09-06T07:35:43.420Z,1004.7
2018-09-06T07:36:45.558Z,1004.6
2018-09-06T07:37:47.412Z,1004.6
2018-09-06T07:38:49.289Z,1004.6
2018-09-06T07:39:51.099Z,1004.6
2018-09-06T07:40:54.318Z,1004.7
2018-09-06T07:41:56.476Z,1004.7
2018-09-06T07:42:58.306Z,1004.7
2018-09-06T07:44:00.493Z,1004.8
2018-09-06T07:45:02.309Z,1004.8
2018-09-06T07:46:04.477Z,1004.8
2018-09-06T07:47:06.273Z,1004.8
2018-09-06T07:48:08.469Z,1004.7
2018-09-06T07:49:11.032Z,1004.8
2018-09-06T07:50:13.128Z,1004.8
2018-09-06T07:51:16.832Z,1004.9
2018-09-06T07:52:18.572Z,1004.8
2018-09-06T07:53:20.556Z,1004.8
2018-09-06T07:54:22.345Z,1004.8
2018-09-06T07:55:24.144Z,1004.9
2018-09-06T07:56:26.239Z,1004.9
2018-09-06T07:57:28.040Z,1004.8
2018-09-06T07:58:29.926Z,1004.8
2018-09-06T07:59:32.596Z,1004.9
2018-09-06T08:00:35.483Z,1004.9
2018-09-06T08:01:38.909Z,1004.9
2018-09-06T08:02:40.718Z,1004.9
2018-09-06T08:03:42.539Z,1005.0
2018-09-06T08:04:44.429Z,1005.0
2018-09-06T08:05:46.198Z,1005.0
2018-09-06T08:06:48.132Z,1005.0
2018-09-06T08:07:49.986Z,1005.0
2018-09-06T08:08:52.978Z,1005.0
2018-09-06T08:09:55.018Z,1005.0
2018-09-06T08:10:57.072Z,1004.9
2018-09-06T08:11:59.974Z,1005.0
2018-09-06T08:13:02.113Z,1005.0
2018-09-06T08:14:05.200Z,1005.0
2018-09-06T08:15:07.061Z,1005.0
2018-09-06T08:16:09.519Z,1005.0
2018-09-06T08:17:11.206Z,1005.0
2018-09-06T08:18:13.628Z,1005.0
2018-09-06T08:19:15.450Z,1005.0
2018-09-06T08:20:17.455Z,1004.9
2018-09-06T08:21:19.262Z,1004.9
2018-09-06T08:22:21.105Z,1004.9
2018-09-06T08:23:22.830Z,1004.9
2018-09-06T08:24:24.768Z,1004.9
2018-09-06T08:25:26.781Z,1004.9
2018-09-06T08:26:28.658Z,1004.9
2018-09-06T08:27:30.525Z,1004.9
2018-09-06T08:28:32.450Z,1004.8
2018-09-06T08:29:34.444Z,1004.8
2018-09-06T08:30:36.221Z,1004.9
2018-09-06T08:31:38.090Z,1004.9
2018-09-06T08:32:40.101Z,1004.9
2018-09-06T08:33:41.906Z,1004.8
2018-09-06T08:34:44.070Z,1004.8
2018-09-06T08:35:46.309Z,1004.8
2018-09-06T08:36:48.358Z,1004.8
2018-09-06T08:37:50.143Z,1004.8
2018-09-06T08:38:52.160Z,1004.8
2018-09-06T08:39:54.047Z,1004.9
2018-09-06T08:40:55.954Z,1004.9
2018-09-06T08:41:58.245Z,1004.9
2018-09-06T08:43:00.368Z,1004.8
2018-09-06T08:44:02.487Z,1004.8
2018-09-06T08:45:04.536Z,1004.9
2018-09-06T08:46:06.501Z,1004.9
2018-09-06T08:47:08.356Z,1004.8
2018-09-06T08:48:10.276Z,1004.8
2018-09-06T08:49:12.270Z,1004.8
2018-09-06T08:50:14.057Z,1004.8
2018-09-06T08:51:15.970Z,1004.8
2018-09-06T08:52:17.896Z,1004.8
2018-09-06T08:53:19.688Z,1004.8
2018-09-06T08:54:21.523Z,1004.9
2018-09-06T08:55:23.958Z,1004.9
2018-09-06T08:56:26.037Z,1004.7
2018-09-06T08:57:27.913Z,1004.8
2018-09-06T08:58:29.958Z,1004.8
2018-09-06T08:59:31.789Z,1004.7
2018-09-06T09:00:34.125Z,1004.7
2018-09-06T09:01:36.714Z,1004.8
2018-09-06T09:02:38.497Z,1005.3
2018-09-06T09:03:40.207Z,1005.3
2018-09-06T09:04:42.345Z,1004.8
2018-09-06T09:05:44.097Z,1004.8
2018-09-06T09:06:45.969Z,1005.1
2018-09-06T09:07:47.693Z,1005.0
2018-09-06T09:08:49.642Z,1004.8
2018-09-06T09:09:51.707Z,1004.8
2018-09-06T09:10:53.534Z,1004.7
2018-09-06T09:11:55.542Z,1004.7
2018-09-06T09:12:57.632Z,1004.6
2018-09-06T09:13:59.446Z,1004.6
2018-09-06T09:15:01.259Z,1004.6
2018-09-06T09:16:03.411Z,1004.6
2018-09-06T09:17:05.298Z,1004.6
2018-09-06T09:18:08.408Z,1004.5
2018-09-06T09:19:10.197Z,1004.6
2018-09-06T09:20:12.035Z,1004.5
2018-09-06T09:21:14.187Z,1004.5
2018-09-06T09:22:16.185Z,1004.5
2018-09-06T09:23:17.896Z,1004.5
2018-09-06T09:24:20.371Z,1004.5
2018-09-06T09:25:23.289Z,1004.5
2018-09-06T09:26:25.002Z,1004.5
2018-09-06T09:27:26.736Z,1004.5
2018-09-06T09:28:28.547Z,1004.5
2018-09-06T09:29:30.395Z,1004.4
2018-09-06T09:30:32.404Z,1004.4
2018-09-06T09:31:34.158Z,1004.4
2018-09-06T09:32:35.958Z,1004.3
2018-09-06T09:33:37.891Z,1004.3
2018-09-06T09:34:39.660Z,1004.2
2018-09-06T09:35:41.699Z,1004.2
2018-09-06T09:36:43.609Z,1004.3
2018-09-06T09:37:45.436Z,1004.3
2018-09-06T09:38:47.408Z,1004.3
2018-09-06T09:39:50.281Z,1004.3
2018-09-06T09:40:52.258Z,1004.3
2018-09-06T09:41:53.983Z,1004.3
2018-09-06T09:42:56.019Z,1004.3
2018-09-06T09:43:58.188Z,1004.3
2018-09-06T09:44:59.997Z,1004.2
2018-09-06T09:48:08.579Z,1004.2
2018-09-06T09:49:10.106Z,1004.2
2018-09-06T09:51:12.458Z,1004.2
2018-09-06T09:52:14.106Z,1004.2
2018-09-06T09:53:16.744Z,1004.2
2018-09-06T09:54:18.574Z,1004.2
2018-09-06T09:55:21.290Z,1004.2
2018-09-06T09:56:22.974Z,1004.3
2018-09-06T09:57:24.787Z,1004.4
2018-09-06T09:58:26.514Z,1004.3
2018-09-06T09:59:28.238Z,1004.3
2018-09-06T10:00:30.772Z,1004.3
2018-09-06T10:01:34.018Z,1004.3
2018-09-06T10:02:36.401Z,1004.3
2018-09-06T10:03:38.170Z,1004.2
2018-09-06T10:04:39.894Z,1004.2
2018-09-06T10:05:41.622Z,1004.2
2018-09-06T10:06:43.519Z,1004.2
2018-09-06T10:07:45.962Z,1004.2
2018-09-06T10:08:48.139Z,1004.1
2018-09-06T10:09:50.900Z,1004.2
2018-09-06T10:10:52.727Z,1004.2
2018-09-06T10:11:54.608Z,1004.1
2018-09-06T10:12:56.966Z,1004.1
2018-09-06T10:13:59.867Z,1004.1
2018-09-06T10:15:01.613Z,1004.1
2018-09-06T10:16:04.035Z,1004.1
2018-09-06T10:17:05.964Z,1004.1
2018-09-06T10:18:08.002Z,1004.1
2018-09-06T10:19:09.703Z,1004.2
2018-09-06T10:20:11.503Z,1004.2
2018-09-06T10:21:13.298Z,1004.2
2018-09-06T10:22:15.186Z,1004.1
2018-09-06T10:23:18.172Z,1004.1
2018-09-06T10:24:20.641Z,1004.2
2018-09-06T10:25:22.353Z,1004.2
2018-09-06T10:26:25.818Z,1004.2
2018-09-06T10:27:27.496Z,1004.2
2018-09-06T10:28:29.837Z,1004.2
2018-09-06T10:29:31.620Z,1004.2
2018-09-06T10:30:33.624Z,1004.3
2018-09-06T10:31:36.245Z,1004.2
2018-09-06T10:32:39.116Z,1004.2
2018-09-06T10:33:41.676Z,1004.2
2018-09-06T10:34:43.486Z,1004.2
2018-09-06T10:35:46.019Z,1004.1
2018-09-06T10:36:48.174Z,1004.1
2018-09-06T10:37:50.449Z,1004.0
2018-09-06T10:38:53.126Z,1004.1
2018-09-06T10:39:55.347Z,1004.0
2018-09-06T10:40:57.092Z,1004.0
2018-09-06T10:41:58.938Z,1004.0
2018-09-06T10:43:01.159Z,1004.0
2018-09-06T10:44:03.611Z,1004.0
2018-09-06T10:45:05.828Z,1003.9
2018-09-06T10:46:08.422Z,1004.0
2018-09-06T10:47:10.179Z,1004.0
2018-09-06T10:48:11.965Z,1004.0
2018-09-06T10:49:13.734Z,1004.0
2018-09-06T10:50:15.668Z,1004.0
2018-09-06T10:51:18.692Z,1004.0
2018-09-06T10:52:20.452Z,1004.0
2018-09-06T10:53:22.177Z,1004.0
2018-09-06T10:54:24.070Z,1003.9
2018-09-06T10:55:26.703Z,1003.9
2018-09-06T10:56:29.214Z,1004.0
2018-09-06T10:57:30.956Z,1004.0
2018-09-06T10:58:33.839Z,1004.0
2018-09-06T10:59:36.115Z,1004.0
2018-09-06T11:00:37.931Z,1004.0
2018-09-06T11:01:39.708Z,1004.0
2018-09-06T11:02:42.501Z,1004.0
2018-09-06T11:03:46.194Z,1004.1
2018-09-06T11:04:47.990Z,1004.0
2018-09-06T11:05:49.902Z,1004.0
2018-09-06T11:06:52.599Z,1004.0
2018-09-06T11:07:54.465Z,1004.0
2018-09-06T11:08:56.443Z,1004.0
2018-09-06T11:09:58.622Z,1004.0
2018-09-06T11:11:00.510Z,1004.0
2018-09-06T11:12:02.527Z,1004.0
2018-09-06T11:13:04.594Z,1004.0
2018-09-06T11:14:06.985Z,1004.1
2018-09-06T11:15:09.231Z,1004.1
2018-09-06T11:16:11.008Z,1004.1
2018-09-06T11:17:14.343Z,1004.1
2018-09-06T11:18:16.520Z,1004.1
2018-09-06T11:19:37.799Z,1004.1
2018-09-06T11:20:44.786Z,1004.1
2018-09-06T11:23:01.290Z,1004.0
